createdAt,value
2019-04-01T00:00:34.681Z,8.20
2019-04-01T00:03:03.029Z,8.10
2019-04-01T00:05:31.054Z,6.40
2019-04-01T00:07:58.990Z,8.30
2019-04-01T00:10:29.366Z,8.10
2019-04-01T00:13:00.053Z,8.20
2019-04-01T00:15:28.793Z,8.20
2019-04-01T00:17:56.610Z,8.10
2019-04-01T00:20:24.876Z,8.10
2019-04-01T00:22:56.353Z,8.20
2019-04-01T00:25:33.508Z,8.30
2019-04-01T00:28:03.458Z,8.20
2019-04-01T00:33:01.914Z,8.10
2019-04-01T00:35:29.962Z,8.10
2019-04-01T00:37:57.957Z,8.20
2019-04-01T00:40:28.546Z,8.20
2019-04-01T00:43:11.532Z,8.20
2019-04-01T00:45:40.073Z,8.10
2019-04-01T00:48:08.094Z,8.00
2019-04-01T00:50:36.575Z,8.10
2019-04-01T00:55:37.801Z,8.00
2019-04-01T00:58:11.620Z,7.90
2019-04-01T01:00:39.987Z,8.00
2019-04-01T01:03:08.841Z,7.90
2019-04-01T01:05:37.155Z,7.90
2019-04-01T01:08:05.188Z,7.90
2019-04-01T01:10:33.261Z,7.90
2019-04-01T01:13:01.556Z,7.80
2019-04-01T01:15:42.171Z,7.70
2019-04-01T01:18:21.288Z,7.60
2019-04-01T01:20:49.462Z,7.50
2019-04-01T01:23:20.351Z,7.20
2019-04-01T01:26:01.759Z,7.20
2019-04-01T01:28:31.059Z,7.00
2019-04-01T01:31:02.161Z,6.80
2019-04-01T01:33:30.314Z,6.80
2019-04-01T01:36:04.431Z,6.60
2019-04-01T01:41:01.047Z,6.20
2019-04-01T01:43:28.986Z,6.40
2019-04-01T01:45:57.237Z,6.30
2019-04-01T01:48:27.774Z,6.10
2019-04-01T01:51:01.348Z,6.20
2019-04-01T01:53:29.678Z,5.90
2019-04-01T01:56:02.553Z,8.20
2019-04-01T01:58:33.153Z,6.20
2019-04-01T02:03:29.537Z,6.20
2019-04-01T02:05:57.690Z,6.50
2019-04-01T02:08:25.945Z,6.30
2019-04-01T02:10:54.218Z,6.30
2019-04-01T02:13:22.586Z,6.20
2019-04-01T02:18:20.913Z,6.10
2019-04-01T02:20:49.848Z,6.20
2019-04-01T02:23:18.219Z,6.00
2019-04-01T02:30:42.697Z,5.90
2019-04-01T02:35:39.549Z,5.90
2019-04-01T02:38:10.316Z,5.80
2019-04-01T02:40:38.502Z,6.00
2019-04-01T02:43:07.993Z,6.20
2019-04-01T02:45:41.674Z,6.20
2019-04-01T02:48:10.531Z,6.10
2019-04-01T02:50:47.268Z,6.20
2019-04-01T02:53:17.691Z,6.10
2019-04-01T02:55:51.194Z,6.00
2019-04-01T02:58:21.580Z,5.90
2019-04-01T03:00:52.936Z,5.90
2019-04-01T03:03:26.988Z,5.90
2019-04-01T03:05:55.123Z,5.90
2019-04-01T03:08:33.571Z,5.90
2019-04-01T03:11:10.201Z,6.30
2019-04-01T03:13:37.259Z,5.90
2019-04-01T03:16:07.050Z,5.80
2019-04-01T03:18:34.945Z,5.90
2019-04-01T03:21:03.139Z,5.80
2019-04-01T03:23:37.668Z,5.80
2019-04-01T03:26:02.253Z,5.80
2019-04-01T03:55:27.971Z,6.60
2019-04-01T03:57:59.094Z,6.60
2019-04-01T04:00:27.649Z,6.70
2019-04-01T04:02:55.897Z,6.80
2019-04-01T04:05:23.853Z,7.10
2019-04-01T04:07:51.929Z,7.10
2019-04-01T04:10:20.260Z,7.20
2019-04-01T04:12:50.844Z,7.50
2019-04-01T04:15:18.688Z,7.30
2019-04-01T04:17:46.546Z,7.00
2019-04-01T04:20:14.583Z,7.20
2019-04-01T04:22:42.450Z,7.30
2019-04-01T04:25:14.367Z,7.20
2019-04-01T04:27:44.012Z,7.30
2019-04-01T04:30:16.790Z,7.00
2019-04-01T04:32:44.765Z,7.20
2019-04-01T04:35:12.964Z,7.20
2019-04-01T04:37:40.950Z,7.20
2019-04-01T04:40:09.077Z,7.30
2019-04-01T04:42:37.112Z,6.10
2019-04-01T04:45:07.299Z,6.40
2019-04-01T04:47:35.431Z,7.20
2019-04-01T04:50:06.286Z,7.40
2019-04-01T04:52:34.251Z,7.30
2019-04-01T04:55:02.532Z,7.40
2019-04-01T04:57:30.516Z,7.40
2019-04-01T04:59:58.598Z,6.90
2019-04-01T05:02:26.912Z,7.50
2019-04-01T05:04:54.727Z,7.70
2019-04-01T05:07:24.063Z,7.60
2019-04-01T05:09:51.736Z,7.80
2019-04-01T05:12:19.680Z,8.00
2019-04-01T05:14:49.954Z,8.10
2019-04-01T05:17:19.008Z,8.30
2019-04-01T05:19:46.921Z,8.40
2019-04-01T05:22:15.138Z,8.40
2019-04-01T05:24:51.480Z,8.60
2019-04-01T05:27:22.966Z,8.60
2019-04-01T05:29:53.542Z,8.80
2019-04-01T05:32:21.759Z,8.80
2019-04-01T05:34:52.241Z,8.80
2019-04-01T05:37:20.250Z,8.90
2019-04-01T05:39:52.702Z,9.10
2019-04-01T05:42:20.784Z,6.50
2019-04-01T05:44:48.871Z,9.10
2019-04-01T05:47:19.547Z,9.30
2019-04-01T05:49:47.823Z,9.20
2019-04-01T05:52:15.861Z,9.40
2019-04-01T05:54:44.051Z,9.40
2019-04-01T05:57:13.047Z,9.20
2019-04-01T05:59:42.217Z,9.30
2019-04-01T06:02:10.717Z,7.60
2019-04-01T06:04:40.396Z,9.50
2019-04-01T06:07:08.287Z,9.40
2019-04-01T06:09:36.416Z,9.60
2019-04-01T06:12:04.586Z,9.70
2019-04-01T06:14:32.984Z,9.80
2019-04-01T06:17:00.824Z,9.90
2019-04-01T06:19:29.064Z,9.40
2019-04-01T06:21:57.146Z,9.60
2019-04-01T06:24:25.058Z,9.90
2019-04-01T06:26:53.197Z,9.90
2019-04-01T06:29:20.961Z,10.00
2019-04-01T06:31:48.908Z,10.20
2019-04-01T06:34:16.682Z,10.20
2019-04-01T06:36:44.504Z,10.10
2019-04-01T06:39:12.270Z,10.10
2019-04-01T06:41:40.226Z,10.00
2019-04-01T06:46:35.995Z,10.20
2019-04-01T06:49:03.928Z,10.40
2019-04-01T06:54:02.329Z,10.80
2019-04-01T06:56:30.282Z,11.00
2019-04-01T06:58:59.258Z,11.10
2019-04-01T07:01:27.661Z,11.30
2019-04-01T07:06:23.870Z,11.80
2019-04-01T07:08:54.023Z,12.10
2019-04-01T07:11:22.136Z,12.10
2019-04-01T07:16:17.787Z,12.40
2019-04-01T07:18:45.828Z,12.90
2019-04-01T07:21:21.628Z,13.50
2019-04-01T07:23:50.835Z,13.90
2019-04-01T07:26:19.483Z,14.30
2019-04-01T07:28:50.123Z,14.30
2019-04-01T07:31:18.701Z,14.60
2019-04-01T07:33:46.829Z,14.50
2019-04-01T07:36:14.454Z,13.50
2019-04-01T07:38:42.561Z,14.00
2019-04-01T07:41:10.252Z,14.10
2019-04-01T07:43:38.325Z,14.20
2019-04-01T07:46:09.325Z,14.20
2019-04-01T07:48:40.847Z,14.40
2019-04-01T07:51:09.191Z,14.30
2019-04-01T07:53:38.675Z,14.30
2019-04-01T07:56:06.462Z,14.30
2019-04-01T07:58:37.632Z,14.40
2019-04-01T08:01:05.650Z,14.40
2019-04-01T08:03:34.641Z,14.60
2019-04-01T08:06:02.779Z,14.60
2019-04-01T08:08:31.442Z,14.70
2019-04-01T08:10:59.252Z,14.90
2019-04-01T08:13:26.970Z,15.00
2019-04-01T08:15:54.815Z,15.10
2019-04-01T08:18:22.554Z,15.10
2019-04-01T08:21:32.697Z,15.00
2019-04-01T08:25:01.477Z,14.70
2019-04-01T08:27:37.863Z,15.20
2019-04-01T08:30:18.294Z,15.40
2019-04-01T08:32:42.388Z,15.60
2019-04-01T08:35:13.696Z,15.50
2019-04-01T08:37:50.056Z,15.30
2019-04-01T08:40:29.035Z,15.90
2019-04-01T08:43:01.742Z,13.60
2019-04-01T08:45:32.782Z,16.00
2019-04-01T08:48:03.010Z,15.90
2019-04-01T08:50:30.617Z,16.10
2019-04-01T08:52:58.257Z,16.10
2019-04-01T08:55:26.619Z,15.70
2019-04-01T08:57:55.851Z,15.70
2019-04-01T09:00:23.708Z,15.80
2019-04-01T09:02:51.387Z,15.80
2019-04-01T09:05:18.965Z,15.90
2019-04-01T09:07:46.814Z,15.80
2019-04-01T09:10:14.474Z,15.70
2019-04-01T09:12:42.802Z,15.60
2019-04-01T09:15:15.727Z,15.50
2019-04-01T09:17:46.871Z,15.80
2019-04-01T09:20:14.581Z,16.00
2019-04-01T09:22:42.204Z,16.10
2019-04-01T09:25:09.857Z,16.20
2019-04-01T09:27:37.538Z,16.10
2019-04-01T09:30:08.519Z,16.10
2019-04-01T09:32:36.153Z,16.00
2019-04-01T09:35:04.265Z,16.00
2019-04-01T09:37:31.979Z,16.10
2019-04-01T09:39:59.576Z,16.30
2019-04-01T09:42:27.194Z,16.40
2019-04-01T09:44:54.759Z,16.50
2019-04-01T09:47:22.559Z,16.40
2019-04-01T09:49:50.184Z,16.10
2019-04-01T09:52:20.660Z,16.10
2019-04-01T09:54:48.350Z,16.30
2019-04-01T09:57:18.315Z,16.40
2019-04-01T09:59:45.396Z,16.50
2019-04-01T10:02:14.171Z,16.40
2019-04-01T10:04:41.833Z,16.70
2019-04-01T10:07:10.609Z,16.80
2019-04-01T10:09:38.191Z,16.90
2019-04-01T10:12:06.011Z,16.80
2019-04-01T10:14:34.102Z,16.70
2019-04-01T10:17:01.904Z,17.00
2019-04-01T10:19:29.493Z,17.30
2019-04-01T10:21:57.061Z,17.30
2019-04-01T10:24:33.755Z,17.60
2019-04-01T10:27:02.907Z,17.70
2019-04-01T10:29:30.482Z,17.30
2019-04-01T10:31:58.132Z,17.40
2019-04-01T10:34:25.803Z,17.10
2019-04-01T10:36:53.628Z,17.10
2019-04-01T10:39:22.009Z,17.00
2019-04-01T10:41:50.143Z,17.10
2019-04-01T10:44:19.973Z,17.20
2019-04-01T10:46:47.612Z,17.00
2019-04-01T10:49:15.222Z,17.20
2019-04-01T10:51:43.032Z,17.20
2019-04-01T10:54:10.719Z,17.60
2019-04-01T10:56:38.369Z,17.90
2019-04-01T10:59:06.010Z,18.20
2019-04-01T11:01:33.881Z,18.20
2019-04-01T11:04:01.786Z,18.20
2019-04-01T11:06:29.616Z,18.30
2019-04-01T11:08:57.355Z,18.20
2019-04-01T11:11:25.175Z,18.30
2019-04-01T11:13:54.042Z,18.40
2019-04-01T11:16:22.177Z,18.40
2019-04-01T11:18:51.840Z,18.10
2019-04-01T11:21:23.551Z,17.60
2019-04-01T11:23:51.112Z,17.20
2019-04-01T11:26:18.746Z,18.00
2019-04-01T11:28:46.392Z,18.20
2019-04-01T11:31:14.089Z,18.00
2019-04-01T11:33:41.798Z,17.70
2019-04-01T11:36:10.574Z,17.80
2019-04-01T11:38:38.572Z,18.00
2019-04-01T11:41:06.202Z,17.50
2019-04-01T11:43:35.684Z,18.00
2019-04-01T11:46:03.871Z,18.40
2019-04-01T11:48:34.300Z,18.70
2019-04-01T11:51:02.313Z,19.00
2019-04-01T11:53:30.865Z,18.60
2019-04-01T11:55:58.954Z,18.80
2019-04-01T11:58:26.891Z,18.00
2019-04-01T12:00:55.026Z,17.90
2019-04-01T12:03:22.659Z,17.80
2019-04-01T12:05:52.201Z,17.70
2019-04-01T12:08:20.504Z,17.60
2019-04-01T12:10:48.695Z,17.90
2019-04-01T12:13:19.263Z,17.90
2019-04-01T12:15:48.826Z,18.60
2019-04-01T12:18:20.874Z,18.90
2019-04-01T12:20:48.605Z,19.10
2019-04-01T12:23:16.329Z,18.50
2019-04-01T12:25:44.027Z,18.60
2019-04-01T12:28:11.743Z,19.00
2019-04-01T12:30:39.492Z,19.00
2019-04-01T12:33:07.052Z,19.40
2019-04-01T12:35:36.151Z,19.40
2019-04-01T12:38:04.379Z,19.50
2019-04-01T12:40:32.155Z,19.40
2019-04-01T12:42:59.837Z,19.30
2019-04-01T12:47:55.179Z,19.20
2019-04-01T12:50:22.869Z,19.20
2019-04-01T12:52:50.550Z,19.60
2019-04-01T12:55:18.365Z,19.90
2019-04-01T12:57:48.391Z,19.70
2019-04-01T13:00:16.874Z,19.40
2019-04-01T13:02:44.786Z,19.90
2019-04-01T13:05:12.885Z,20.00
2019-04-01T13:07:40.848Z,20.20
2019-04-01T13:10:10.558Z,20.20
2019-04-01T13:12:39.364Z,19.90
2019-04-01T13:15:07.217Z,19.70
2019-04-01T13:17:35.063Z,19.60
2019-04-01T13:20:02.779Z,19.40
2019-04-01T13:22:30.525Z,19.40
2019-04-01T13:24:58.159Z,19.40
2019-04-01T13:27:26.232Z,19.30
2019-04-01T13:29:53.916Z,19.30
2019-04-01T13:32:21.569Z,19.30
2019-04-01T13:34:49.274Z,19.40
2019-04-01T13:37:19.470Z,19.30
2019-04-01T13:39:47.223Z,19.10
2019-04-01T13:42:14.985Z,19.10
2019-04-01T13:44:43.276Z,18.60
2019-04-01T13:47:10.865Z,18.80
2019-04-01T13:49:39.641Z,18.90
2019-04-01T13:52:07.367Z,18.80
2019-04-01T13:54:35.082Z,19.00
2019-04-01T13:57:02.813Z,19.20
2019-04-01T13:59:30.755Z,19.30
2019-04-01T14:01:59.569Z,18.60
2019-04-01T14:04:27.482Z,17.50
2019-04-01T14:06:55.511Z,17.90
2019-04-01T14:09:23.278Z,18.20
2019-04-01T14:11:51.017Z,18.20
2019-04-01T14:14:18.683Z,18.50
2019-04-01T14:16:46.527Z,18.50
2019-04-01T14:19:17.820Z,18.60
2019-04-01T14:21:45.491Z,18.70
2019-04-01T14:24:13.587Z,18.50
2019-04-01T14:26:42.732Z,18.50
2019-04-01T14:29:16.833Z,18.50
2019-04-01T14:31:46.053Z,18.40
2019-04-01T14:34:22.970Z,18.50
2019-04-01T14:36:43.828Z,18.20
2019-04-01T14:39:11.777Z,18.20
2019-04-01T14:41:39.552Z,18.00
2019-04-01T14:46:38.323Z,17.90
2019-04-01T14:51:37.156Z,17.80
2019-04-01T14:56:34.337Z,17.90
2019-04-01T14:59:02.262Z,17.90
2019-04-01T15:04:05.023Z,17.50
2019-04-01T15:06:33.029Z,17.50
2019-04-01T15:09:00.880Z,17.40
2019-04-01T15:11:31.344Z,17.50
2019-04-01T15:14:00.634Z,17.70
2019-04-01T15:16:28.440Z,17.70
2019-04-01T15:18:57.070Z,16.10
2019-04-01T15:21:34.125Z,17.30
2019-04-01T15:24:04.493Z,17.50
2019-04-01T15:26:33.838Z,17.50
2019-04-01T15:29:01.933Z,17.50
2019-04-01T15:31:29.734Z,17.10
2019-04-01T15:33:57.889Z,17.00
2019-04-01T15:36:30.838Z,17.10
2019-04-01T15:39:17.653Z,17.30
2019-04-01T15:41:45.798Z,17.30
2019-04-01T15:44:13.405Z,17.30
2019-04-01T15:46:51.652Z,17.40
2019-04-01T15:52:28.405Z,17.30
2019-04-01T15:54:57.937Z,17.30
2019-04-01T15:57:26.356Z,17.30
2019-04-01T15:59:55.461Z,17.40
2019-04-01T16:02:23.321Z,17.30
2019-04-01T16:04:51.158Z,17.60
2019-04-01T16:07:22.363Z,17.40
2019-04-01T16:09:48.730Z,17.50
2019-04-01T16:12:18.491Z,17.50
2019-04-01T16:14:46.449Z,17.70
2019-04-01T16:17:14.383Z,17.90
2019-04-01T16:19:42.174Z,18.20
2019-04-01T16:22:09.847Z,18.50
2019-04-01T16:24:38.222Z,18.80
2019-04-01T16:27:06.304Z,19.00
2019-04-01T16:29:34.330Z,18.70
2019-04-01T16:32:02.296Z,18.60
2019-04-01T16:34:30.571Z,18.30
2019-04-01T16:37:06.873Z,18.30
2019-04-01T16:39:34.632Z,18.10
2019-04-01T16:42:02.335Z,18.00
2019-04-01T16:44:30.659Z,17.60
2019-04-01T16:46:58.243Z,17.60
2019-04-01T16:49:28.111Z,17.60
2019-04-01T16:51:56.107Z,17.50
2019-04-01T16:54:37.707Z,16.80
2019-04-01T16:57:14.121Z,16.60
2019-04-01T16:59:46.949Z,16.40
2019-04-01T17:07:19.563Z,15.40
2019-04-01T17:09:47.792Z,15.30
2019-04-01T17:12:15.650Z,15.10
2019-04-01T17:14:43.667Z,14.90
2019-04-01T17:17:12.205Z,14.90
2019-04-01T17:19:40.725Z,14.70
2019-04-01T17:22:11.292Z,14.60
2019-04-01T17:24:38.540Z,14.50
2019-04-01T17:27:10.919Z,14.10
2019-04-01T17:29:38.975Z,13.90
2019-04-01T17:32:06.567Z,13.80
2019-04-01T17:34:36.320Z,13.70
2019-04-01T17:37:04.200Z,13.40
2019-04-01T17:39:32.259Z,13.20
2019-04-01T17:42:02.229Z,13.20
2019-04-01T17:45:15.182Z,12.80
2019-04-01T17:47:43.059Z,12.80
2019-04-01T17:50:12.059Z,12.50
2019-04-01T17:52:40.226Z,12.50
2019-04-01T17:55:08.569Z,12.50
2019-04-01T17:57:40.377Z,12.30
2019-04-01T18:00:13.146Z,12.20
2019-04-01T18:02:41.004Z,12.00
2019-04-01T18:07:38.698Z,12.30
2019-04-01T18:10:08.421Z,12.20
2019-04-01T18:12:36.275Z,12.20
2019-04-01T18:15:04.469Z,11.90
2019-04-01T18:17:33.490Z,11.90
2019-04-01T18:20:01.561Z,12.00
2019-04-01T18:22:29.623Z,11.80
2019-04-01T18:24:57.524Z,11.70
2019-04-01T18:28:47.751Z,11.60
2019-04-01T18:34:28.095Z,11.50
2019-04-01T18:39:57.008Z,11.50
2019-04-01T18:42:26.498Z,11.60
2019-04-01T18:44:54.101Z,11.60
2019-04-01T18:47:29.561Z,11.60
2019-04-01T18:49:57.261Z,11.60
2019-04-01T18:52:38.176Z,11.50
2019-04-01T18:55:07.796Z,11.40
2019-04-01T19:22:42.131Z,11.10
2019-04-01T19:25:10.820Z,11.00
2019-04-01T19:27:38.964Z,10.90
2019-04-01T19:30:08.711Z,10.90
2019-04-01T19:32:38.331Z,10.90
2019-04-01T19:35:09.412Z,10.90
2019-04-01T19:37:37.976Z,11.00
2019-04-01T19:40:10.161Z,10.80
2019-04-01T19:45:12.326Z,10.20
2019-04-01T19:47:50.419Z,10.00
2019-04-01T19:50:20.938Z,10.10
2019-04-01T19:52:50.043Z,10.20
2019-04-01T19:55:20.587Z,10.10
2019-04-01T19:57:49.780Z,9.90
2019-04-01T20:00:27.755Z,9.80
2019-04-01T20:02:47.526Z,9.80
2019-04-01T20:05:15.433Z,9.70
2019-04-01T20:07:44.648Z,9.50
2019-04-01T20:10:13.115Z,7.50
2019-04-01T20:12:41.601Z,9.40
2019-04-01T20:15:11.910Z,9.50
2019-04-01T20:17:40.551Z,9.70
2019-04-01T20:20:08.717Z,9.60
2019-04-01T20:22:36.557Z,9.60
2019-04-01T20:25:05.178Z,9.40
2019-04-01T20:27:33.457Z,9.40
2019-04-01T20:30:04.835Z,9.30
2019-04-01T20:32:32.704Z,9.30
2019-04-01T20:35:00.523Z,9.10
2019-04-01T20:37:29.325Z,9.20
2019-04-01T20:39:57.385Z,9.10
2019-04-01T20:42:25.087Z,9.10
2019-04-01T20:45:05.466Z,8.90
2019-04-01T20:47:36.246Z,11.80
2019-04-01T20:50:05.668Z,8.70
2019-04-01T20:52:33.435Z,8.60
2019-04-01T20:55:01.078Z,8.40
2019-04-01T20:57:28.712Z,8.30
2019-04-01T20:59:56.596Z,8.30
2019-04-01T21:02:24.161Z,8.10
2019-04-01T21:04:52.693Z,8.20
2019-04-01T21:07:20.487Z,8.00
2019-04-01T21:09:48.285Z,7.90
2019-04-01T21:12:17.013Z,7.80
2019-04-01T21:14:44.528Z,7.80
2019-04-01T21:17:12.136Z,7.80
2019-04-01T21:19:39.664Z,7.80
2019-04-01T21:22:08.077Z,7.70
2019-04-01T21:24:35.738Z,7.70
2019-04-01T21:27:03.325Z,7.60
2019-04-01T21:29:30.997Z,7.60
2019-04-01T21:31:58.603Z,7.40
2019-04-01T21:34:26.153Z,7.30
2019-04-01T21:36:53.758Z,7.30
2019-04-01T21:51:28.678Z,7.10
2019-04-01T23:20:34.634Z,5.90
2019-04-01T23:24:07.054Z,5.40
